createdAt,value
2023-04-28T00:00:05.588Z,70.10
2023-04-28T00:02:32.581Z,70.20
2023-04-28T00:04:59.481Z,70.20
2023-04-28T00:07:26.821Z,70.20
2023-04-28T00:09:53.588Z,70.20
2023-04-28T00:12:20.583Z,70.20
2023-04-28T00:14:47.232Z,70.20
2023-04-28T00:17:13.942Z,70.10
2023-04-28T00:19:40.669Z,70.20
2023-04-28T00:22:07.331Z,70.20
2023-04-28T00:24:36.123Z,70.20
2023-04-28T00:27:03.258Z,70.10
2023-04-28T00:29:30.178Z,70.10
2023-04-28T00:31:57.027Z,70.20
2023-04-28T00:34:23.806Z,70.10
2023-04-28T00:36:50.602Z,70.10
2023-04-28T00:39:18.528Z,70.20
2023-04-28T00:41:45.365Z,70.20
2023-04-28T00:44:12.664Z,70.20
2023-04-28T00:46:39.651Z,70.20
2023-04-28T00:49:06.381Z,70.20
2023-04-28T00:51:33.805Z,70.20
2023-04-28T00:54:00.715Z,70.20
2023-04-28T00:56:30.954Z,70.20
2023-04-28T00:58:58.503Z,70.20
2023-04-28T01:01:25.416Z,70.20
2023-04-28T01:03:52.698Z,70.20
2023-04-28T01:06:20.927Z,70.20
2023-04-28T01:08:53.260Z,70.20
2023-04-28T01:11:20.538Z,70.20
2023-04-28T01:14:03.855Z,70.20
2023-04-28T01:16:35.937Z,70.80
2023-04-28T01:19:03.226Z,70.20
2023-04-28T01:21:32.598Z,70.70
2023-04-28T01:24:06.276Z,70.20
2023-04-28T01:26:33.088Z,70.10
2023-04-28T01:29:01.545Z,70.20
2023-04-28T01:31:28.385Z,70.20
2023-04-28T01:33:55.077Z,70.20
2023-04-28T01:36:23.606Z,70.10
2023-04-28T01:38:50.855Z,70.20
2023-04-28T01:41:17.537Z,70.10
2023-04-28T01:43:44.400Z,70.20
2023-04-28T01:46:11.325Z,70.10
2023-04-28T01:48:38.122Z,70.20
2023-04-28T01:51:06.090Z,70.20
2023-04-28T01:53:33.170Z,70.20
2023-04-28T01:55:59.912Z,70.20
2023-04-28T01:58:26.674Z,70.20
2023-04-28T02:00:53.432Z,70.20
2023-04-28T02:03:22.209Z,70.20
2023-04-28T02:05:49.012Z,70.70
2023-04-28T02:08:15.962Z,70.20
2023-04-28T02:10:43.486Z,70.20
2023-04-28T02:13:10.179Z,70.20
2023-04-28T02:15:43.640Z,70.10
2023-04-28T02:18:11.002Z,70.20
2023-04-28T02:20:40.461Z,70.20
2023-04-28T02:23:08.603Z,70.20
2023-04-28T02:25:35.315Z,70.20
2023-04-28T02:28:02.308Z,70.20
2023-04-28T02:30:28.984Z,70.20
2023-04-28T02:32:56.258Z,70.20
2023-04-28T02:35:23.894Z,70.20
2023-04-28T02:37:51.172Z,70.20
2023-04-28T02:40:18.971Z,70.20
2023-04-28T02:42:45.630Z,70.20
2023-04-28T02:45:12.513Z,70.20
2023-04-28T02:47:39.707Z,70.30
2023-04-28T02:50:07.181Z,70.20
2023-04-28T02:52:33.997Z,70.20
2023-04-28T02:55:00.887Z,70.10
2023-04-28T02:57:27.546Z,70.20
2023-04-28T02:59:54.328Z,70.20
2023-04-28T03:02:23.027Z,70.20
2023-04-28T03:04:50.085Z,70.30
2023-04-28T03:07:16.903Z,70.30
2023-04-28T03:09:43.585Z,70.20
2023-04-28T03:12:10.311Z,70.20
2023-04-28T03:14:37.001Z,70.30
2023-04-28T03:17:03.875Z,70.20
2023-04-28T03:19:30.835Z,70.30
2023-04-28T03:21:57.535Z,70.30
2023-04-28T03:24:24.341Z,70.30
2023-04-28T03:26:51.202Z,70.30
2023-04-28T03:29:17.980Z,70.30
2023-04-28T03:31:44.692Z,70.30
2023-04-28T03:34:11.425Z,70.40
2023-04-28T03:36:38.176Z,70.40
2023-04-28T03:39:13.282Z,71.10
2023-04-28T03:41:39.969Z,70.50
2023-04-28T03:44:39.059Z,70.50
2023-04-28T03:47:07.371Z,70.50
2023-04-28T03:49:35.325Z,70.60
2023-04-28T03:52:04.266Z,70.60
2023-04-28T03:54:31.375Z,70.60
2023-04-28T03:57:00.784Z,70.60
2023-04-28T03:59:27.787Z,70.60
2023-04-28T04:01:54.503Z,70.60
2023-04-28T04:04:21.984Z,70.60
2023-04-28T04:06:49.502Z,70.60
2023-04-28T04:09:16.817Z,70.60
2023-04-28T04:11:43.620Z,70.60
2023-04-28T04:14:10.585Z,70.60
2023-04-28T04:16:37.397Z,70.60
2023-04-28T04:19:05.185Z,70.60
2023-04-28T04:21:39.417Z,70.60
2023-04-28T04:24:06.831Z,70.70
2023-04-28T04:26:33.559Z,70.80
2023-04-28T04:29:01.215Z,70.80
2023-04-28T04:31:28.030Z,70.80
2023-04-28T04:33:54.780Z,70.80
2023-04-28T04:36:22.209Z,70.90
2023-04-28T04:38:50.684Z,70.80
2023-04-28T04:41:20.717Z,70.90
2023-04-28T04:43:48.547Z,70.90
2023-04-28T04:46:15.639Z,70.90
2023-04-28T04:48:42.520Z,71.00
2023-04-28T04:51:09.484Z,71.10
2023-04-28T04:53:36.293Z,71.10
2023-04-28T04:56:03.419Z,71.10
2023-04-28T04:58:31.855Z,71.10
2023-04-28T05:01:22.382Z,71.10
2023-04-28T05:03:49.349Z,71.20
2023-04-28T05:06:16.485Z,71.20
2023-04-28T05:08:46.330Z,71.10
2023-04-28T05:11:13.433Z,71.10
2023-04-28T05:13:40.884Z,71.10
2023-04-28T05:16:07.913Z,71.20
2023-04-28T05:18:37.189Z,71.30
2023-04-28T05:21:04.216Z,71.30
2023-04-28T05:23:31.000Z,71.30
2023-04-28T05:25:58.501Z,71.20
2023-04-28T05:28:25.531Z,71.30
2023-04-28T05:30:54.868Z,71.30
2023-04-28T05:33:22.405Z,71.30
2023-04-28T05:35:49.157Z,71.30
2023-04-28T05:38:16.110Z,71.30
2023-04-28T05:40:44.329Z,71.30
2023-04-28T05:43:12.510Z,71.30
2023-04-28T05:45:39.524Z,71.30
2023-04-28T05:48:06.524Z,71.40
2023-04-28T05:50:33.878Z,71.40
2023-04-28T05:53:01.757Z,71.40
2023-04-28T05:55:29.727Z,71.40
2023-04-28T05:57:56.558Z,71.40
2023-04-28T06:00:23.380Z,71.40
2023-04-28T06:02:53.683Z,71.40
2023-04-28T06:05:21.351Z,71.50
2023-04-28T06:07:51.559Z,71.50
2023-04-28T06:10:20.727Z,71.50
2023-04-28T06:12:47.508Z,71.50
2023-04-28T06:15:15.568Z,71.50
2023-04-28T06:17:42.514Z,71.50
2023-04-28T06:20:11.163Z,71.50
2023-04-28T06:22:38.229Z,71.60
2023-04-28T06:25:06.923Z,71.60
2023-04-28T06:27:44.069Z,71.50
2023-04-28T06:30:17.071Z,71.60
2023-04-28T06:32:44.248Z,71.60
2023-04-28T06:35:11.165Z,71.60
2023-04-28T06:37:38.412Z,71.70
2023-04-28T06:40:05.676Z,71.60
2023-04-28T06:42:38.181Z,71.60
2023-04-28T06:45:11.388Z,71.50
2023-04-28T06:47:40.489Z,71.50
2023-04-28T06:50:09.436Z,71.40
2023-04-28T06:52:39.566Z,71.40
2023-04-28T06:55:10.250Z,71.60
2023-04-28T06:57:38.085Z,71.50
2023-04-28T07:00:05.606Z,71.40
2023-04-28T07:02:32.502Z,71.60
2023-04-28T07:04:59.381Z,71.60
2023-04-28T07:07:26.458Z,71.80
2023-04-28T07:09:53.576Z,71.80
2023-04-28T07:12:21.702Z,72.20
2023-04-28T07:14:48.739Z,72.20
2023-04-28T07:17:15.692Z,72.80
2023-04-28T07:19:42.390Z,73.20
2023-04-28T07:22:09.169Z,73.80
2023-04-28T07:24:36.025Z,74.60
2023-04-28T07:27:03.865Z,75.00
2023-04-28T07:29:34.036Z,74.70
2023-04-28T07:32:08.646Z,75.50
2023-04-28T07:34:35.986Z,75.30
2023-04-28T07:37:03.524Z,74.90
2023-04-28T07:39:32.058Z,74.20
2023-04-28T07:41:59.795Z,74.70
2023-04-28T07:44:26.507Z,74.50
2023-04-28T07:46:53.938Z,74.40
2023-04-28T07:49:20.764Z,74.20
2023-04-28T07:51:47.541Z,74.00
2023-04-28T07:54:15.534Z,74.10
2023-04-28T07:56:42.441Z,74.00
2023-04-28T07:59:09.523Z,74.00
2023-04-28T08:01:36.236Z,73.80
2023-04-28T08:04:03.656Z,73.70
2023-04-28T08:06:30.639Z,73.80
2023-04-28T08:08:57.517Z,73.70
2023-04-28T08:11:24.289Z,73.70
2023-04-28T08:13:51.032Z,73.70
2023-04-28T08:16:17.947Z,73.50
2023-04-28T08:18:45.848Z,73.20
2023-04-28T08:21:12.597Z,73.40
2023-04-28T08:23:39.290Z,73.20
2023-04-28T08:26:05.984Z,73.20
2023-04-28T08:28:33.966Z,73.10
2023-04-28T08:31:01.041Z,73.10
2023-04-28T08:33:27.931Z,73.10
2023-04-28T08:35:55.527Z,73.10
2023-04-28T08:38:24.050Z,73.10
2023-04-28T08:40:51.724Z,73.10
2023-04-28T08:43:20.796Z,73.10
2023-04-28T08:45:47.552Z,73.20
2023-04-28T08:48:22.790Z,73.20
2023-04-28T08:50:54.678Z,73.30
2023-04-28T08:53:26.752Z,73.30
2023-04-28T08:55:58.027Z,73.40
2023-04-28T08:58:26.683Z,73.30
2023-04-28T09:00:54.502Z,73.30
2023-04-28T09:03:21.951Z,73.40
2023-04-28T09:05:49.190Z,73.40
2023-04-28T09:08:16.324Z,73.40
2023-04-28T09:10:43.111Z,73.40
2023-04-28T09:13:09.817Z,73.40
2023-04-28T09:15:40.972Z,73.40
2023-04-28T09:18:08.497Z,73.50
2023-04-28T09:20:36.456Z,73.50
2023-04-28T09:23:17.740Z,73.40
2023-04-28T09:26:11.059Z,73.50
2023-04-28T09:28:37.827Z,73.60
2023-04-28T09:31:04.743Z,73.50
2023-04-28T09:33:31.800Z,73.60
2023-04-28T09:35:58.544Z,73.80
2023-04-28T09:38:25.496Z,74.10
2023-04-28T09:40:56.833Z,74.30
2023-04-28T09:43:28.215Z,74.40
2023-04-28T09:46:05.206Z,74.10
2023-04-28T09:48:34.279Z,74.60
2023-04-28T09:51:06.188Z,74.60
2023-04-28T09:53:33.947Z,74.70
2023-04-28T09:56:03.268Z,74.50
2023-04-28T09:58:32.173Z,74.40
2023-04-28T10:01:00.864Z,74.20
2023-04-28T10:03:30.389Z,74.30
2023-04-28T10:05:58.982Z,74.20
2023-04-28T10:08:27.556Z,74.10
2023-04-28T10:10:55.396Z,74.20
2023-04-28T10:13:23.236Z,74.10
2023-04-28T10:15:51.263Z,74.20
2023-04-28T10:18:18.477Z,74.20
2023-04-28T10:20:59.882Z,74.10
2023-04-28T10:24:03.524Z,74.30
2023-04-28T10:27:04.355Z,74.30
2023-04-28T10:29:33.391Z,74.20
2023-04-28T10:32:21.271Z,74.30
2023-04-28T10:34:48.277Z,74.40
2023-04-28T10:37:15.707Z,74.90
2023-04-28T10:40:21.261Z,75.00
2023-04-28T10:42:54.866Z,74.80
2023-04-28T10:45:44.520Z,74.80
2023-04-28T10:48:11.320Z,75.40
2023-04-28T10:50:39.121Z,75.50
2023-04-28T10:53:06.425Z,75.40
2023-04-28T10:55:36.836Z,75.50
2023-04-28T10:58:15.921Z,75.30
2023-04-28T11:00:50.846Z,74.90
2023-04-28T11:03:51.242Z,75.40
2023-04-28T11:06:29.484Z,75.50
2023-04-28T11:08:58.566Z,75.40
2023-04-28T11:11:29.640Z,75.60
2023-04-28T11:14:19.360Z,75.70
2023-04-28T11:16:50.519Z,75.70
2023-04-28T11:19:22.898Z,75.10
2023-04-28T11:21:49.802Z,74.60
2023-04-28T11:24:17.264Z,74.90
2023-04-28T11:26:44.457Z,75.00
2023-04-28T11:29:12.400Z,75.20
2023-04-28T11:31:39.261Z,75.50
2023-04-28T11:34:11.934Z,75.40
2023-04-28T11:36:40.998Z,74.80
2023-04-28T11:39:09.541Z,74.50
2023-04-28T11:41:38.322Z,74.30
2023-04-28T11:44:11.808Z,74.20
2023-04-28T11:46:56.263Z,74.30
2023-04-28T11:49:43.256Z,75.10
2023-04-28T11:52:10.892Z,74.40
2023-04-28T11:54:38.454Z,74.30
2023-04-28T11:57:05.796Z,74.20
2023-04-28T11:59:36.123Z,74.10
2023-04-28T12:02:07.895Z,74.20
2023-04-28T12:04:42.302Z,74.20
2023-04-28T12:07:18.403Z,74.30
2023-04-28T12:10:09.600Z,74.10
2023-04-28T12:12:49.183Z,74.80
2023-04-28T12:15:20.453Z,74.50
2023-04-28T12:17:48.429Z,74.10
2023-04-28T12:20:35.320Z,74.20
2023-04-28T12:23:02.753Z,74.20
2023-04-28T12:25:29.755Z,74.20
2023-04-28T12:28:00.518Z,74.20
2023-04-28T12:30:28.608Z,74.10
2023-04-28T12:32:56.139Z,74.00
2023-04-28T12:35:24.734Z,74.20
2023-04-28T12:37:52.944Z,74.10
2023-04-28T12:40:19.867Z,74.10
2023-04-28T12:42:46.692Z,74.20
2023-04-28T12:45:14.035Z,74.00
2023-04-28T12:47:40.933Z,74.10
2023-04-28T12:50:08.302Z,74.20
2023-04-28T12:52:35.932Z,74.20
2023-04-28T12:55:03.334Z,74.20
2023-04-28T12:57:30.441Z,74.20
2023-04-28T12:59:57.226Z,74.00
2023-04-28T13:02:24.584Z,74.10
2023-04-28T13:04:52.159Z,74.10
2023-04-28T13:07:19.288Z,74.00
2023-04-28T13:09:47.238Z,74.00
2023-04-28T13:12:14.784Z,74.00
2023-04-28T13:14:41.890Z,74.00
2023-04-28T13:17:09.994Z,74.00
2023-04-28T13:19:37.359Z,74.20
2023-04-28T13:22:05.929Z,74.20
2023-04-28T13:24:36.138Z,74.20
2023-04-28T13:27:04.051Z,74.10
2023-04-28T13:29:30.866Z,74.10
2023-04-28T13:31:57.678Z,74.10
2023-04-28T13:34:24.435Z,74.80
2023-04-28T13:36:53.933Z,74.30
2023-04-28T13:39:22.045Z,74.40
2023-04-28T13:41:49.485Z,74.40
2023-04-28T13:44:16.490Z,74.40
2023-04-28T13:46:43.456Z,74.60
2023-04-28T13:49:10.647Z,74.60
2023-04-28T13:51:37.698Z,74.80
2023-04-28T13:54:05.396Z,74.60
2023-04-28T13:56:32.448Z,74.70
2023-04-28T13:58:59.146Z,75.00
2023-04-28T14:01:26.284Z,74.70
2023-04-28T14:03:53.157Z,75.30
2023-04-28T14:06:21.401Z,75.40
2023-04-28T14:08:48.132Z,75.40
2023-04-28T14:11:14.954Z,75.40
2023-04-28T14:13:41.720Z,75.60
2023-04-28T14:16:08.969Z,75.60
2023-04-28T14:18:35.797Z,75.60
2023-04-28T14:21:03.250Z,75.50
2023-04-28T14:23:30.038Z,75.60
2023-04-28T14:25:58.013Z,75.40
2023-04-28T14:28:24.812Z,75.50
2023-04-28T14:30:53.090Z,75.70
2023-04-28T14:33:19.920Z,75.50
2023-04-28T14:35:46.648Z,75.50
2023-04-28T14:38:13.827Z,75.60
2023-04-28T14:40:40.517Z,75.60
2023-04-28T14:43:07.295Z,75.90
2023-04-28T14:45:37.028Z,75.90
2023-04-28T14:48:04.304Z,75.70
2023-04-28T14:50:31.049Z,75.90
2023-04-28T14:53:05.130Z,75.90
2023-04-28T14:55:32.286Z,76.00
2023-04-28T14:57:59.207Z,75.90
2023-04-28T15:00:25.924Z,76.00
2023-04-28T15:02:53.178Z,75.80
2023-04-28T15:05:20.041Z,76.00
2023-04-28T15:07:46.922Z,75.90
2023-04-28T15:10:13.730Z,76.00
2023-04-28T15:12:40.486Z,75.80
2023-04-28T15:15:07.859Z,75.90
2023-04-28T15:17:35.501Z,76.00
2023-04-28T15:20:02.264Z,75.70
2023-04-28T15:22:28.950Z,75.90
2023-04-28T15:24:55.996Z,76.00
2023-04-28T15:27:23.206Z,75.70
2023-04-28T15:29:50.638Z,76.00
2023-04-28T15:32:17.446Z,76.00
2023-04-28T15:34:44.198Z,75.90
2023-04-28T15:37:35.441Z,75.90
2023-04-28T15:40:02.203Z,76.00
2023-04-28T15:42:29.019Z,75.70
2023-04-28T15:44:55.696Z,75.50
2023-04-28T15:47:22.705Z,75.30
2023-04-28T15:49:52.370Z,75.60
2023-04-28T15:52:19.058Z,75.60
2023-04-28T15:54:46.444Z,75.30
2023-04-28T15:57:13.259Z,75.10
2023-04-28T15:59:41.029Z,75.60
2023-04-28T16:02:08.192Z,75.40
2023-04-28T16:04:35.152Z,75.90
2023-04-28T16:07:02.647Z,75.50
2023-04-28T16:09:29.916Z,75.50
2023-04-28T16:11:59.398Z,75.90
2023-04-28T16:14:26.890Z,75.50
2023-04-28T16:16:53.877Z,75.60
2023-04-28T16:19:21.674Z,75.70
2023-04-28T16:21:48.417Z,75.30
2023-04-28T16:24:15.276Z,75.50
2023-04-28T16:26:42.103Z,75.70
2023-04-28T16:29:08.884Z,75.30
2023-04-28T16:31:36.301Z,75.60
2023-04-28T16:34:03.891Z,75.50
2023-04-28T16:36:32.855Z,75.50
2023-04-28T16:38:59.841Z,75.40
2023-04-28T16:41:26.526Z,75.20
2023-04-28T16:43:53.260Z,75.50
2023-04-28T16:46:19.997Z,75.70
2023-04-28T16:48:46.690Z,75.60
2023-04-28T16:51:13.373Z,75.60
2023-04-28T16:53:40.061Z,75.50
2023-04-28T16:56:10.227Z,75.50
2023-04-28T16:58:37.483Z,75.70
2023-04-28T17:01:04.224Z,75.60
2023-04-28T17:03:31.097Z,76.30
2023-04-28T17:05:59.536Z,75.90
2023-04-28T17:08:26.733Z,76.20
2023-04-28T17:10:53.549Z,76.80
2023-04-28T17:13:20.505Z,76.20
2023-04-28T17:15:54.613Z,76.10
2023-04-28T17:18:21.573Z,76.20
2023-04-28T17:20:48.294Z,76.20
2023-04-28T17:23:15.690Z,76.20
2023-04-28T17:25:42.501Z,75.80
2023-04-28T17:28:09.223Z,75.70
2023-04-28T17:30:36.770Z,75.90
2023-04-28T17:33:04.090Z,76.30
2023-04-28T17:35:31.107Z,76.10
2023-04-28T17:37:57.949Z,76.00
2023-04-28T17:40:25.186Z,76.20
2023-04-28T17:42:54.128Z,76.20
2023-04-28T17:45:21.189Z,76.50
2023-04-28T17:47:48.074Z,76.50
2023-04-28T17:50:14.824Z,76.30
2023-04-28T17:52:43.893Z,76.10
2023-04-28T17:55:10.832Z,76.50
2023-04-28T17:57:37.490Z,76.60
2023-04-28T18:00:05.265Z,76.40
2023-04-28T18:02:38.730Z,76.20
2023-04-28T18:05:07.459Z,76.30
2023-04-28T18:07:34.157Z,76.30
2023-04-28T18:10:01.001Z,76.60
2023-04-28T18:12:28.207Z,76.60
2023-04-28T18:14:55.283Z,76.80
2023-04-28T18:17:23.241Z,76.60
2023-04-28T18:19:52.198Z,76.40
2023-04-28T18:22:18.932Z,76.30
2023-04-28T18:24:46.009Z,76.60
2023-04-28T18:27:12.740Z,76.80
2023-04-28T18:29:39.601Z,76.80
2023-04-28T18:32:06.738Z,76.50
2023-04-28T18:34:33.580Z,76.70
2023-04-28T18:37:00.348Z,76.50
2023-04-28T18:39:27.229Z,76.40
2023-04-28T18:41:53.906Z,78.30
2023-04-28T18:44:20.598Z,78.10
2023-04-28T18:46:47.478Z,77.60
2023-04-28T18:49:14.594Z,78.10
2023-04-28T18:51:41.268Z,77.50
2023-04-28T18:54:07.992Z,77.00
2023-04-28T18:56:35.034Z,77.00
2023-04-28T18:59:04.197Z,77.00
2023-04-28T19:01:31.507Z,77.50
2023-04-28T19:03:58.572Z,78.50
2023-04-28T19:06:25.596Z,78.70
2023-04-28T19:08:52.272Z,78.90
2023-04-28T19:11:18.987Z,79.00
2023-04-28T19:13:45.699Z,79.20
2023-04-28T19:16:12.738Z,79.10
2023-04-28T19:18:41.847Z,78.80
2023-04-28T19:21:10.834Z,79.10
2023-04-28T19:23:39.333Z,79.10
2023-04-28T19:26:07.189Z,78.80
2023-04-28T19:28:34.064Z,78.50
2023-04-28T19:31:00.887Z,78.00
2023-04-28T19:33:28.543Z,78.10
2023-04-28T19:35:55.450Z,78.30
2023-04-28T19:38:23.386Z,78.90
2023-04-28T19:40:57.932Z,79.20
2023-04-28T19:43:24.704Z,78.20
2023-04-28T19:45:51.588Z,78.10
2023-04-28T19:48:18.776Z,77.90
2023-04-28T19:50:45.607Z,78.00
2023-04-28T19:53:12.989Z,77.90
2023-04-28T19:55:40.085Z,77.70
2023-04-28T19:58:06.860Z,77.60
2023-04-28T20:00:33.781Z,77.70
2023-04-28T20:03:00.725Z,77.60
2023-04-28T20:05:28.818Z,77.50
2023-04-28T20:07:56.510Z,77.60
2023-04-28T20:10:23.896Z,77.50
2023-04-28T20:12:50.833Z,77.50
2023-04-28T20:15:18.166Z,77.50
2023-04-28T20:17:46.227Z,77.40
2023-04-28T20:20:13.277Z,77.70
2023-04-28T20:22:40.960Z,77.80
2023-04-28T20:25:10.291Z,77.70
2023-04-28T20:27:37.282Z,77.70
2023-04-28T20:30:04.955Z,78.30
2023-04-28T20:32:31.826Z,77.80
2023-04-28T20:34:58.783Z,77.90
2023-04-28T20:37:26.419Z,77.70
2023-04-28T20:39:53.576Z,77.80
2023-04-28T20:42:20.354Z,77.80
2023-04-28T20:44:47.072Z,78.50
2023-04-28T20:47:14.143Z,77.90
2023-04-28T20:49:41.957Z,77.90
2023-04-28T20:52:09.047Z,78.10
2023-04-28T20:54:36.437Z,78.20
2023-04-28T20:57:04.481Z,77.80
2023-04-28T20:59:32.594Z,77.70
2023-04-28T21:01:59.756Z,77.80
2023-04-28T21:04:26.683Z,77.70
2023-04-28T21:06:53.472Z,77.50
2023-04-28T21:09:20.838Z,77.50
2023-04-28T21:11:48.068Z,77.50
2023-04-28T21:14:15.288Z,77.60
2023-04-28T21:16:43.504Z,77.40
2023-04-28T21:19:10.841Z,77.50
2023-04-28T21:21:37.977Z,78.00
2023-04-28T21:24:09.091Z,77.50
2023-04-28T21:26:36.545Z,77.40
2023-04-28T21:29:03.411Z,77.40
2023-04-28T21:31:31.207Z,77.40
2023-04-28T21:33:58.044Z,77.50
2023-04-28T21:36:24.804Z,77.30
2023-04-28T21:38:51.831Z,77.80
2023-04-28T21:41:18.519Z,77.70
2023-04-28T21:43:45.205Z,77.70
2023-04-28T21:46:12.957Z,77.50
2023-04-28T21:48:39.785Z,77.70
2023-04-28T21:51:06.622Z,77.70
2023-04-28T21:53:33.512Z,77.80
2023-04-28T21:56:00.304Z,78.00
2023-04-28T21:58:27.638Z,78.00
2023-04-28T22:00:55.088Z,78.00
2023-04-28T22:03:22.262Z,77.90
2023-04-28T22:05:49.288Z,78.20
2023-04-28T22:08:16.947Z,78.10
2023-04-28T22:10:45.500Z,78.10
2023-04-28T22:13:13.022Z,78.90
2023-04-28T22:15:39.906Z,78.10
2023-04-28T22:18:07.900Z,78.10
2023-04-28T22:20:34.883Z,78.30
2023-04-28T22:23:01.566Z,78.00
2023-04-28T22:25:28.251Z,78.00
2023-04-28T22:27:54.940Z,78.00
2023-04-28T22:30:23.643Z,77.90
2023-04-28T22:32:52.111Z,78.20
2023-04-28T22:35:18.842Z,78.80
2023-04-28T22:37:45.529Z,78.80
2023-04-28T22:40:12.280Z,78.80
2023-04-28T22:42:40.341Z,79.00
2023-04-28T22:45:07.864Z,79.10
2023-04-28T22:47:35.105Z,79.00
2023-04-28T22:50:06.285Z,78.50
2023-04-28T22:52:34.077Z,78.90
2023-04-28T22:55:01.320Z,79.20
2023-04-28T22:57:28.190Z,79.20
2023-04-28T22:59:55.303Z,79.20
2023-04-28T23:02:22.906Z,79.20
2023-04-28T23:04:50.029Z,79.20
2023-04-28T23:07:17.115Z,79.30
2023-04-28T23:09:43.743Z,78.60
2023-04-28T23:12:10.438Z,79.20
2023-04-28T23:14:37.166Z,79.30
2023-04-28T23:17:03.826Z,79.30
2023-04-28T23:19:30.578Z,79.20
2023-04-28T23:21:57.330Z,79.10
2023-04-28T23:24:24.204Z,79.30
2023-04-28T23:26:50.894Z,79.30
2023-04-28T23:29:17.603Z,78.90
2023-04-28T23:31:44.308Z,79.20
2023-04-28T23:34:10.999Z,79.20
2023-04-28T23:36:37.898Z,79.20
2023-04-28T23:39:04.624Z,79.00
2023-04-28T23:41:31.324Z,79.30
2023-04-28T23:43:57.996Z,79.20
2023-04-28T23:46:24.654Z,79.20
2023-04-28T23:48:51.352Z,79.20
2023-04-28T23:51:18.062Z,79.30
2023-04-28T23:53:44.716Z,79.20
2023-04-28T23:56:11.580Z,79.30
2023-04-28T23:58:38.737Z,79.20
